Time;durP1;ratioP1;P1;durP2;ratioP2;P2;SDS_P1;SDS_P2;PMS_P1;PMS_P2;Temp;Humidity;BMP_temperature;BMP_pressure;BME280_temperature;BME280_humidity;BME280_pressure;Samples;Min_cycle;Max_cycle;Signal;HPM_P1;HPM_P2
2023/08/24 00:02:06;;;;;;;13.80;8.40;;;;;;;;;;5019425;28;20044;-71
2023/08/24 00:04:31;;;;;;;10.88;7.45;;;;;;;;;;5021064;28;20036;-70
2023/08/24 00:06:56;;;;;;;17.52;10.55;;;;;;;;;;5049345;28;20072;-70
2023/08/24 00:09:24;;;;;;;27.38;14.13;;;;;;;;;;5018147;28;20041;-71
2023/08/24 00:11:50;;;;;;;18.58;11.35;;;;;;;;;;5019433;28;20052;-71
2023/08/24 00:14:15;;;;;;;13.00;6.45;;;;;;;;;;5017327;28;20079;-71
2023/08/24 00:16:41;;;;;;;12.10;6.50;;;;;;;;;;5021960;28;20198;-70
2023/08/24 00:19:08;;;;;;;13.35;5.90;;;;;;;;;;5022904;28;20924;-70
2023/08/24 00:21:33;;;;;;;9.93;5.57;;;;;;;;;;5019269;28;20104;-70
2023/08/24 00:24:01;;;;;;;13.32;5.80;;;;;;;;;;5020241;28;21032;-71
2023/08/24 00:26:29;;;;;;;12.18;5.10;;;;;;;;;;5020693;28;20048;-71
2023/08/24 00:28:54;;;;;;;11.90;6.70;;;;;;;;;;5020128;28;20037;-71
2023/08/24 00:31:22;;;;;;;13.82;6.25;;;;;;;;;;5019003;28;20627;-70
2023/08/24 00:33:47;;;;;;;9.93;4.53;;;;;;;;;;5019645;28;20032;-71
2023/08/24 00:36:12;;;;;;;10.88;5.65;;;;;;;;;;5019193;28;20501;-71
2023/08/24 00:38:38;;;;;;;10.18;5.88;;;;;;;;;;5021408;28;20045;-72
2023/08/24 00:41:03;;;;;;;10.25;5.30;;;;;;;;;;5019389;28;20120;-70
2023/08/24 00:43:29;;;;;;;7.80;5.53;;;;;;;;;;5019228;28;20033;-70
2023/08/24 00:45:59;;;;;;;9.75;5.25;;;;;;;;;;5024177;28;20108;-71
2023/08/24 00:48:26;;;;;;;9.45;5.80;;;;;;;;;;5019721;28;20049;-69
2023/08/24 00:50:54;;;;;;;11.40;6.13;;;;;;;;;;5051803;28;20084;-71
2023/08/24 00:53:21;;;;;;;10.77;5.80;;;;;;;;;;5017840;28;20037;-71
2023/08/24 00:55:46;;;;;;;9.10;5.80;;;;;;;;;;5019330;28;20025;-71
2023/08/24 00:58:11;;;;;;;11.98;5.88;;;;;;;;;;5019735;28;20079;-71
2023/08/24 01:00:39;;;;;;;9.52;6.00;;;;;;;;;;5019307;28;20063;-71
2023/08/24 01:03:05;;;;;;;10.23;5.82;;;;;;;;;;5018081;28;20032;-71
2023/08/24 01:05:30;;;;;;;10.07;6.10;;;;;;;;;;5018784;28;20044;-71
2023/08/24 01:07:55;;;;;;;10.27;6.75;;;;;;;;;;5022844;28;20107;-71
2023/08/24 01:10:21;;;;;;;10.50;5.80;;;;;;;;;;5019820;28;20047;-71
2023/08/24 01:12:46;;;;;;;8.57;5.93;;;;;;;;;;5019662;28;20100;-71
2023/08/24 01:15:47;;;;;;;11.27;5.50;;;;;;;;;;5018347;28;20183;-72
2023/08/24 01:18:15;;;;;;;14.40;7.78;;;;;;;;;;4993415;28;20964;-72
2023/08/24 01:20:42;;;;;;;11.88;5.43;;;;;;;;;;5016440;28;20040;-71
2023/08/24 01:23:14;;;;;;;11.13;5.28;;;;;;;;;;5049964;28;20037;-71
2023/08/24 01:25:47;;;;;;;12.98;6.43;;;;;;;;;;5017313;28;20168;-71
2023/08/24 01:28:13;;;;;;;12.73;5.95;;;;;;;;;;5033138;28;20040;-71
2023/08/24 01:30:38;;;;;;;8.23;4.63;;;;;;;;;;5019776;28;20486;-70
2023/08/24 01:33:04;;;;;;;8.45;4.45;;;;;;;;;;5006903;28;20784;-70
2023/08/24 01:35:30;;;;;;;8.68;4.18;;;;;;;;;;5049256;28;20043;-71
2023/08/24 01:37:55;;;;;;;8.68;4.32;;;;;;;;;;5022606;28;22210;-72
2023/08/24 01:40:26;;;;;;;13.90;4.47;;;;;;;;;;5050618;28;20032;-70
2023/08/24 01:42:59;;;;;;;9.30;4.03;;;;;;;;;;5019423;28;20033;-72
2023/08/24 01:45:29;;;;;;;9.80;4.07;;;;;;;;;;5022179;28;20067;-72
2023/08/24 01:47:55;;;;;;;7.70;4.03;;;;;;;;;;5017152;28;20048;-69
2023/08/24 01:50:20;;;;;;;11.10;5.85;;;;;;;;;;5019282;28;20040;-70
2023/08/24 01:52:45;;;;;;;31.10;18.70;;;;;;;;;;5017473;28;20037;-72
2023/08/24 01:55:11;;;;;;;12.75;7.32;;;;;;;;;;5022367;28;20045;-72
2023/08/24 01:57:37;;;;;;;8.80;5.53;;;;;;;;;;5023556;28;20036;-70
2023/08/24 02:00:06;;;;;;;11.38;5.50;;;;;;;;;;5018054;27;20091;-70
2023/08/24 02:02:33;;;;;;;8.68;5.18;;;;;;;;;;5051315;28;20037;-71
2023/08/24 02:04:58;;;;;;;16.90;10.55;;;;;;;;;;5016946;28;20152;-70
2023/08/24 02:07:23;;;;;;;11.60;5.63;;;;;;;;;;5018226;28;20037;-69
2023/08/24 02:09:49;;;;;;;7.85;4.47;;;;;;;;;;5019119;28;20033;-70
2023/08/24 02:12:14;;;;;;;8.70;4.82;;;;;;;;;;5018735;28;20124;-70
2023/08/24 02:14:39;;;;;;;8.95;3.80;;;;;;;;;;5017497;28;20033;-72
2023/08/24 02:17:05;;;;;;;7.38;3.88;;;;;;;;;;5021975;28;20048;-69
2023/08/24 02:19:30;;;;;;;9.00;4.10;;;;;;;;;;5007728;28;20079;-72
2023/08/24 02:21:55;;;;;;;8.88;4.20;;;;;;;;;;5019751;28;20078;-72
2023/08/24 02:24:23;;;;;;;8.60;3.72;;;;;;;;;;5018012;28;20489;-72
2023/08/24 02:26:48;;;;;;;7.95;4.43;;;;;;;;;;5017065;28;20060;-71
2023/08/24 02:29:16;;;;;;;6.55;4.00;;;;;;;;;;5020081;28;20041;-70
2023/08/24 02:31:41;;;;;;;7.13;4.30;;;;;;;;;;5019004;28;20098;-72
2023/08/24 02:34:09;;;;;;;10.55;4.28;;;;;;;;;;5021995;28;20087;-72
2023/08/24 02:36:34;;;;;;;8.02;4.53;;;;;;;;;;5017005;28;20041;-71
2023/08/24 02:39:02;;;;;;;8.30;4.93;;;;;;;;;;5022576;28;20122;-72
2023/08/24 02:41:28;;;;;;;7.57;4.22;;;;;;;;;;5021104;28;20036;-72
2023/08/24 02:43:53;;;;;;;8.18;4.80;;;;;;;;;;5023586;28;20049;-69
2023/08/24 02:46:21;;;;;;;6.70;4.65;;;;;;;;;;5050883;28;20091;-71
2023/08/24 02:48:46;;;;;;;11.30;5.20;;;;;;;;;;5021916;28;22808;-71
2023/08/24 02:51:11;;;;;;;12.70;4.78;;;;;;;;;;5027050;28;20030;-71
2023/08/24 02:53:39;;;;;;;8.15;4.90;;;;;;;;;;5025227;28;20048;-71
2023/08/24 02:56:05;;;;;;;9.13;4.95;;;;;;;;;;5019891;28;20136;-71
2023/08/24 02:58:30;;;;;;;9.52;5.47;;;;;;;;;;5039388;28;20029;-72
2023/08/24 03:00:56;;;;;;;9.55;5.63;;;;;;;;;;5020909;28;20041;-71
2023/08/24 03:03:23;;;;;;;9.15;5.05;;;;;;;;;;5024003;28;20033;-72
2023/08/24 03:05:59;;;;;;;9.05;5.22;;;;;;;;;;5018614;28;20448;-73
2023/08/24 03:08:24;;;;;;;9.63;5.82;;;;;;;;;;5021004;28;20036;-72
2023/08/24 03:10:50;;;;;;;12.05;6.10;;;;;;;;;;5026392;28;20030;-72
2023/08/24 03:13:15;;;;;;;9.93;5.43;;;;;;;;;;5022375;28;20746;-71
2023/08/24 03:15:40;;;;;;;8.15;5.88;;;;;;;;;;5020528;28;20033;-72
2023/08/24 03:18:11;;;;;;;11.55;6.05;;;;;;;;;;5020929;28;20068;-72
2023/08/24 03:20:36;;;;;;;14.73;6.82;;;;;;;;;;5021826;28;20210;-72
2023/08/24 03:23:04;;;;;;;13.13;6.65;;;;;;;;;;5025430;28;20044;-72
2023/08/24 03:25:35;;;;;;;11.65;6.80;;;;;;;;;;5021153;28;20048;-70
2023/08/24 03:28:04;;;;;;;10.13;6.80;;;;;;;;;;5018680;28;20061;-72
2023/08/24 03:30:32;;;;;;;14.13;6.95;;;;;;;;;;5022097;28;20037;-70
2023/08/24 03:33:00;;;;;;;12.80;6.72;;;;;;;;;;5020792;28;20037;-71
2023/08/24 03:35:26;;;;;;;12.48;7.10;;;;;;;;;;5019239;28;20147;-70
2023/08/24 03:37:51;;;;;;;10.93;6.82;;;;;;;;;;5017748;28;20746;-70
2023/08/24 03:40:17;;;;;;;10.52;7.05;;;;;;;;;;5016760;28;20140;-71
2023/08/24 03:42:43;;;;;;;11.55;6.72;;;;;;;;;;5020313;27;20115;-71
2023/08/24 03:45:09;;;;;;;12.43;6.97;;;;;;;;;;5018490;27;20044;-72
2023/08/24 03:47:36;;;;;;;9.65;6.78;;;;;;;;;;5021460;28;21193;-72
2023/08/24 03:50:01;;;;;;;14.88;7.57;;;;;;;;;;5044266;28;20038;-72
2023/08/24 03:52:27;;;;;;;13.43;8.23;;;;;;;;;;5051026;28;20531;-72
2023/08/24 03:54:52;;;;;;;15.38;8.27;;;;;;;;;;5019737;28;20561;-70
2023/08/24 03:57:17;;;;;;;13.40;8.35;;;;;;;;;;5018338;28;20048;-70
2023/08/24 03:59:43;;;;;;;13.70;8.70;;;;;;;;;;5019937;28;20143;-70
2023/08/24 04:02:08;;;;;;;14.40;8.60;;;;;;;;;;5020061;28;20662;-70
2023/08/24 04:04:33;;;;;;;10.57;7.80;;;;;;;;;;5019928;28;20033;-69
2023/08/24 04:07:02;;;;;;;15.45;8.68;;;;;;;;;;5020137;28;20037;-72
2023/08/24 04:09:27;;;;;;;14.00;9.10;;;;;;;;;;5016367;28;20030;-71
2023/08/24 04:11:52;;;;;;;12.68;8.85;;;;;;;;;;5022091;28;20063;-71
2023/08/24 04:14:20;;;;;;;13.57;9.40;;;;;;;;;;5016636;28;20047;-71
2023/08/24 04:16:45;;;;;;;13.27;9.40;;;;;;;;;;5018784;28;20030;-71
2023/08/24 04:19:11;;;;;;;17.10;10.35;;;;;;;;;;5048186;28;20044;-71
2023/08/24 04:21:39;;;;;;;14.65;10.00;;;;;;;;;;5022014;28;20116;-71
2023/08/24 04:24:04;;;;;;;17.63;10.77;;;;;;;;;;5016456;28;20033;-72
2023/08/24 04:26:30;;;;;;;18.60;11.60;;;;;;;;;;5026693;28;20048;-71
2023/08/24 04:28:55;;;;;;;13.77;10.38;;;;;;;;;;5023344;28;20088;-71
2023/08/24 04:31:20;;;;;;;17.42;10.88;;;;;;;;;;5021815;28;20040;-72
2023/08/24 04:33:45;;;;;;;16.42;10.75;;;;;;;;;;5017548;28;20798;-71
2023/08/24 04:36:11;;;;;;;18.45;10.93;;;;;;;;;;5017276;28;20101;-72
2023/08/24 04:38:36;;;;;;;22.13;11.90;;;;;;;;;;5017448;28;20630;-70
2023/08/24 04:41:07;;;;;;;18.05;11.27;;;;;;;;;;5030770;28;20060;-72
2023/08/24 04:43:32;;;;;;;18.08;11.10;;;;;;;;;;5015286;28;20044;-72
2023/08/24 04:46:00;;;;;;;15.77;11.23;;;;;;;;;;5012279;28;20037;-71
2023/08/24 04:48:26;;;;;;;18.35;12.35;;;;;;;;;;5017707;28;20033;-72
2023/08/24 04:50:52;;;;;;;14.57;11.80;;;;;;;;;;5016426;28;20063;-71
2023/08/24 04:53:18;;;;;;;21.02;12.10;;;;;;;;;;5019435;28;20045;-71
2023/08/24 04:55:46;;;;;;;17.92;12.82;;;;;;;;;;5015586;28;20576;-70
2023/08/24 04:58:13;;;;;;;21.33;13.68;;;;;;;;;;5018236;28;20037;-70
2023/08/24 05:00:41;;;;;;;18.27;12.32;;;;;;;;;;5019026;28;20036;-71
2023/08/24 05:03:07;;;;;;;18.10;12.98;;;;;;;;;;5018767;28;20036;-69
2023/08/24 05:05:35;;;;;;;20.98;12.90;;;;;;;;;;5017155;28;20107;-70
2023/08/24 05:08:01;;;;;;;19.70;13.15;;;;;;;;;;5017337;28;20067;-69
2023/08/24 05:10:33;;;;;;;20.25;13.07;;;;;;;;;;5021621;28;20178;-71
2023/08/24 05:12:58;;;;;;;22.02;13.35;;;;;;;;;;5019918;28;20033;-71
2023/08/24 05:15:24;;;;;;;21.40;14.18;;;;;;;;;;5018529;28;22178;-71
2023/08/24 05:17:53;;;;;;;21.67;14.18;;;;;;;;;;5023737;28;20060;-70
2023/08/24 05:20:19;;;;;;;20.05;13.40;;;;;;;;;;5022918;28;20039;-71
2023/08/24 05:22:44;;;;;;;20.48;13.27;;;;;;;;;;5019174;28;20037;-71
2023/08/24 05:25:09;;;;;;;17.73;13.10;;;;;;;;;;5018771;28;20179;-71
2023/08/24 05:27:35;;;;;;;17.95;13.15;;;;;;;;;;5018021;28;20441;-71
2023/08/24 05:30:00;;;;;;;21.05;12.68;;;;;;;;;;5015012;28;20502;-71
2023/08/24 05:32:25;;;;;;;18.38;12.05;;;;;;;;;;5006632;28;20131;-71
2023/08/24 05:34:51;;;;;;;19.38;13.00;;;;;;;;;;5022848;28;20043;-71
2023/08/24 05:37:16;;;;;;;18.73;12.20;;;;;;;;;;5020376;28;20029;-71
2023/08/24 05:39:44;;;;;;;16.38;11.95;;;;;;;;;;5022308;28;20142;-69
2023/08/24 05:42:12;;;;;;;16.17;11.80;;;;;;;;;;5020407;28;20166;-69
2023/08/24 05:44:41;;;;;;;16.02;11.90;;;;;;;;;;5023727;28;20051;-69
2023/08/24 05:47:07;;;;;;;16.80;11.25;;;;;;;;;;5018651;28;20057;-69
2023/08/24 05:49:32;;;;;;;15.13;11.77;;;;;;;;;;5005917;28;20264;-69
2023/08/24 05:51:57;;;;;;;16.33;11.10;;;;;;;;;;5017027;28;20041;-69
2023/08/24 05:54:23;;;;;;;15.27;10.68;;;;;;;;;;5022243;28;20906;-69
2023/08/24 05:56:48;;;;;;;16.10;11.00;;;;;;;;;;5019414;28;22223;-69
2023/08/24 05:59:14;;;;;;;13.90;10.90;;;;;;;;;;5017005;28;20105;-70
2023/08/24 06:01:42;;;;;;;15.63;10.75;;;;;;;;;;5005690;28;20116;-69
2023/08/24 06:04:08;;;;;;;16.98;9.85;;;;;;;;;;5021749;28;20429;-69
2023/08/24 06:06:33;;;;;;;17.70;10.98;;;;;;;;;;5018785;28;20042;-69
2023/08/24 06:08:58;;;;;;;16.50;10.45;;;;;;;;;;5018001;28;20750;-69
2023/08/24 06:11:26;;;;;;;15.18;10.60;;;;;;;;;;5023055;28;20039;-68
2023/08/24 06:13:53;;;;;;;17.52;9.38;;;;;;;;;;5018459;28;20033;-71
2023/08/24 06:16:21;;;;;;;14.48;9.85;;;;;;;;;;5021332;28;20029;-69
2023/08/24 06:18:46;;;;;;;14.07;9.32;;;;;;;;;;5020628;28;20087;-70
2023/08/24 06:21:12;;;;;;;14.57;10.15;;;;;;;;;;5021207;28;20047;-70
2023/08/24 06:23:38;;;;;;;14.60;9.10;;;;;;;;;;5021052;28;20073;-69
2023/08/24 06:26:04;;;;;;;14.00;9.18;;;;;;;;;;5005404;28;20043;-70
2023/08/24 06:28:29;;;;;;;13.35;8.55;;;;;;;;;;5017414;28;20071;-70
2023/08/24 06:30:57;;;;;;;11.30;8.13;;;;;;;;;;5033674;28;20033;-70
2023/08/24 06:33:30;;;;;;;12.90;8.50;;;;;;;;;;5017106;28;20029;-70
2023/08/24 06:35:58;;;;;;;13.95;8.88;;;;;;;;;;5018290;28;20033;-70
2023/08/24 06:38:24;;;;;;;12.35;7.68;;;;;;;;;;4996685;28;20040;-70
2023/08/24 06:40:49;;;;;;;11.65;7.78;;;;;;;;;;5018474;28;20037;-70
2023/08/24 06:43:17;;;;;;;10.13;7.82;;;;;;;;;;5018245;28;20047;-68
2023/08/24 06:45:43;;;;;;;11.18;6.95;;;;;;;;;;5017696;28;20098;-68
2023/08/24 06:48:08;;;;;;;10.93;6.60;;;;;;;;;;5019333;28;20055;-68
2023/08/24 06:50:34;;;;;;;12.65;6.45;;;;;;;;;;5001581;28;20033;-69
2023/08/24 06:52:59;;;;;;;10.52;6.38;;;;;;;;;;5019341;28;20045;-69
2023/08/24 06:55:25;;;;;;;12.15;6.75;;;;;;;;;;5018057;28;20510;-69
2023/08/24 06:57:50;;;;;;;7.97;6.28;;;;;;;;;;5019445;28;20044;-70
2023/08/24 07:00:16;;;;;;;14.38;6.70;;;;;;;;;;5016783;28;20125;-71
2023/08/24 07:02:42;;;;;;;13.13;7.53;;;;;;;;;;5020241;28;20033;-69
2023/08/24 07:05:08;;;;;;;8.73;6.13;;;;;;;;;;5020235;28;20110;-71
2023/08/24 07:07:34;;;;;;;9.35;6.30;;;;;;;;;;5015223;28;20402;-70
2023/08/24 07:09:59;;;;;;;9.95;6.85;;;;;;;;;;5048459;28;20041;-70
2023/08/24 07:12:24;;;;;;;10.10;6.38;;;;;;;;;;5020885;28;20045;-70
2023/08/24 07:14:50;;;;;;;11.95;6.63;;;;;;;;;;5021542;28;20053;-70
2023/08/24 07:17:15;;;;;;;10.95;6.03;;;;;;;;;;5018290;28;20735;-70
2023/08/24 07:19:40;;;;;;;13.68;5.85;;;;;;;;;;5007490;28;20041;-71
2023/08/24 07:22:06;;;;;;;8.90;5.50;;;;;;;;;;5012250;28;20037;-71
2023/08/24 07:24:33;;;;;;;9.93;6.38;;;;;;;;;;5014758;28;20616;-69
2023/08/24 07:26:58;;;;;;;8.35;6.07;;;;;;;;;;5016619;28;20141;-71
2023/08/24 07:29:24;;;;;;;9.60;5.90;;;;;;;;;;5016514;28;20482;-72
2023/08/24 07:31:49;;;;;;;9.32;6.15;;;;;;;;;;5007461;28;21876;-71
2023/08/24 07:34:15;;;;;;;13.15;6.47;;;;;;;;;;5022089;28;20052;-71
2023/08/24 07:36:42;;;;;;;15.15;7.55;;;;;;;;;;5020342;28;20036;-69
2023/08/24 07:39:07;;;;;;;12.30;6.57;;;;;;;;;;5016263;28;20061;-69
2023/08/24 07:41:32;;;;;;;11.88;6.82;;;;;;;;;;5022231;28;20116;-70
2023/08/24 07:43:58;;;;;;;12.73;7.00;;;;;;;;;;5018933;28;20893;-70
2023/08/24 07:46:23;;;;;;;12.35;6.85;;;;;;;;;;5019733;28;20138;-69
2023/08/24 07:48:48;;;;;;;9.93;5.80;;;;;;;;;;5020028;28;20096;-70
2023/08/24 07:51:14;;;;;;;11.13;6.32;;;;;;;;;;5017572;28;20045;-71
2023/08/24 07:53:43;;;;;;;11.52;6.70;;;;;;;;;;5019221;28;20323;-70
2023/08/24 07:56:11;;;;;;;12.15;6.60;;;;;;;;;;5019553;28;20254;-72
2023/08/24 07:58:40;;;;;;;9.95;6.40;;;;;;;;;;5019441;28;20033;-72
2023/08/24 08:01:08;;;;;;;11.85;7.13;;;;;;;;;;5015373;28;20041;-72
2023/08/24 08:03:35;;;;;;;12.93;7.50;;;;;;;;;;5008573;28;20502;-73
2023/08/24 08:06:01;;;;;;;12.13;7.18;;;;;;;;;;5017161;28;20540;-70
2023/08/24 08:08:26;;;;;;;11.82;7.32;;;;;;;;;;5021495;28;20099;-69
2023/08/24 08:10:59;;;;;;;10.73;7.30;;;;;;;;;;4999154;28;21868;-71
2023/08/24 08:13:24;;;;;;;14.20;7.75;;;;;;;;;;4992529;28;20123;-70
2023/08/24 08:15:49;;;;;;;17.05;8.35;;;;;;;;;;5041124;28;20475;-69
2023/08/24 08:18:17;;;;;;;16.23;7.82;;;;;;;;;;5017467;28;20753;-69
2023/08/24 08:20:42;;;;;;;13.50;8.55;;;;;;;;;;5016335;28;20044;-67
2023/08/24 08:23:08;;;;;;;17.17;8.07;;;;;;;;;;5016421;28;20033;-64
2023/08/24 08:25:33;;;;;;;13.90;8.82;;;;;;;;;;5015046;28;20032;-64
2023/08/24 08:27:58;;;;;;;13.80;8.70;;;;;;;;;;5016687;28;20049;-65
2023/08/24 08:30:24;;;;;;;13.45;8.15;;;;;;;;;;5003870;28;20037;-64
2023/08/24 08:32:52;;;;;;;13.68;8.32;;;;;;;;;;5016836;28;20048;-65
2023/08/24 08:35:21;;;;;;;15.40;8.95;;;;;;;;;;5018110;28;20570;-63
2023/08/24 08:37:50;;;;;;;15.35;8.98;;;;;;;;;;5014529;28;20084;-66
2023/08/24 08:40:15;;;;;;;21.67;9.73;;;;;;;;;;5045518;28;20034;-66
2023/08/24 08:42:40;;;;;;;21.20;9.73;;;;;;;;;;5017393;28;20498;-65
2023/08/24 08:45:08;;;;;;;15.32;9.65;;;;;;;;;;5043821;28;20118;-66
2023/08/24 08:47:33;;;;;;;16.55;9.70;;;;;;;;;;5045350;28;20303;-66
2023/08/24 08:49:59;;;;;;;12.95;9.88;;;;;;;;;;5012434;28;20493;-66
2023/08/24 08:52:27;;;;;;;16.70;10.25;;;;;;;;;;5011189;28;20176;-66
2023/08/24 08:54:52;;;;;;;16.25;9.98;;;;;;;;;;5016403;28;20076;-66
2023/08/24 08:57:19;;;;;;;15.93;10.20;;;;;;;;;;5016062;28;20037;-66
2023/08/24 08:59:46;;;;;;;16.80;9.23;;;;;;;;;;5017733;28;20769;-66
2023/08/24 09:02:14;;;;;;;16.75;9.43;;;;;;;;;;5016652;28;20155;-66
2023/08/24 09:04:44;;;;;;;16.48;9.68;;;;;;;;;;5019205;28;21035;-66
2023/08/24 09:07:14;;;;;;;20.58;9.85;;;;;;;;;;5017254;28;20103;-66
2023/08/24 09:09:40;;;;;;;17.00;8.98;;;;;;;;;;5015789;28;20472;-69
2023/08/24 09:12:05;;;;;;;16.17;9.82;;;;;;;;;;5015719;28;20029;-69
2023/08/24 09:14:31;;;;;;;17.30;9.30;;;;;;;;;;5046554;28;20641;-68
2023/08/24 09:17:00;;;;;;;18.65;9.73;;;;;;;;;;5000431;28;20056;-68
2023/08/24 09:19:30;;;;;;;16.90;9.50;;;;;;;;;;5012702;28;20061;-69
2023/08/24 09:21:59;;;;;;;16.67;10.65;;;;;;;;;;5015201;28;20041;-69
2023/08/24 09:24:29;;;;;;;;;;;;;;;;;;5015566;28;20633;-68
2023/08/24 09:26:54;;;;;;;18.02;10.30;;;;;;;;;;5045531;28;19925;-67
2023/08/24 09:29:21;;;;;;;17.55;10.13;;;;;;;;;;5018763;28;20033;-67
2023/08/24 09:31:46;;;;;;;19.67;10.52;;;;;;;;;;5016192;28;21155;-68
2023/08/24 09:34:14;;;;;;;17.35;10.77;;;;;;;;;;5016038;28;20677;-68
2023/08/24 09:36:40;;;;;;;18.70;11.43;;;;;;;;;;5016431;28;20041;-63
2023/08/24 09:39:06;;;;;;;16.08;10.43;;;;;;;;;;5017251;28;20095;-67
2023/08/24 09:41:42;;;;;;;17.02;10.52;;;;;;;;;;5018001;28;20026;-66
2023/08/24 09:44:10;;;;;;;19.08;11.27;;;;;;;;;;5017272;28;20041;-66
2023/08/24 09:46:38;;;;;;;21.20;11.23;;;;;;;;;;5017014;28;20037;-66
2023/08/24 09:49:09;;;;;;;21.73;12.32;;;;;;;;;;5013884;28;20041;-67
2023/08/24 09:51:35;;;;;;;33.30;12.70;;;;;;;;;;4994039;28;20058;-68
2023/08/24 09:54:06;;;;;;;30.75;13.35;;;;;;;;;;5016090;28;21067;-68
2023/08/24 09:56:33;;;;;;;26.10;13.38;;;;;;;;;;5012412;28;20040;-63
2023/08/24 09:59:05;;;;;;;17.30;12.57;;;;;;;;;;5016518;28;20053;-64
2023/08/24 10:01:31;;;;;;;23.00;13.80;;;;;;;;;;5013899;28;22204;-66
2023/08/24 10:03:57;;;;;;;19.55;13.25;;;;;;;;;;5005898;28;20065;-67
2023/08/24 10:06:27;;;;;;;18.35;12.55;;;;;;;;;;5012710;28;20039;-67
2023/08/24 10:08:54;;;;;;;22.88;15.13;;;;;;;;;;5017917;28;20125;-65
2023/08/24 10:11:24;;;;;;;24.48;14.93;;;;;;;;;;5016577;28;20032;-67
2023/08/24 10:13:53;;;;;;;18.58;12.50;;;;;;;;;;5017055;28;20037;-67
2023/08/24 10:16:19;;;;;;;30.15;17.30;;;;;;;;;;5018716;28;20060;-67
2023/08/24 10:18:46;;;;;;;36.97;15.10;;;;;;;;;;5032722;28;20045;-68
2023/08/24 10:21:11;;;;;;;38.33;14.93;;;;;;;;;;5015669;28;20872;-68
2023/08/24 10:23:37;;;;;;;32.17;14.25;;;;;;;;;;5016589;28;20133;-69
2023/08/24 10:26:02;;;;;;;25.65;12.48;;;;;;;;;;5016459;28;20040;-70
2023/08/24 10:28:28;;;;;;;32.83;12.65;;;;;;;;;;5011215;28;20440;-70
2023/08/24 10:30:56;;;;;;;26.17;12.20;;;;;;;;;;5014798;28;20033;-71
2023/08/24 10:33:22;;;;;;;36.50;11.57;;;;;;;;;;5016024;28;20042;-70
2023/08/24 10:35:48;;;;;;;35.05;11.75;;;;;;;;;;5015052;28;20110;-69
2023/08/24 10:38:22;;;;;;;34.25;12.40;;;;;;;;;;5014952;28;20715;-69
2023/08/24 10:40:50;;;;;;;33.20;13.35;;;;;;;;;;5048551;28;20610;-69
2023/08/24 10:43:16;;;;;;;46.22;14.75;;;;;;;;;;5042897;28;20057;-69
2023/08/24 10:45:58;;;;;;;53.20;14.45;;;;;;;;;;5013771;28;20047;-68
2023/08/24 10:48:24;;;;;;;39.90;14.32;;;;;;;;;;5014461;28;20823;-70
2023/08/24 10:51:10;;;;;;;43.88;15.40;;;;;;;;;;5013815;28;20121;-69
2023/08/24 10:53:51;;;;;;;39.85;15.75;;;;;;;;;;5046373;28;20045;-71
2023/08/24 10:56:17;;;;;;;41.35;16.20;;;;;;;;;;5021332;28;20079;-72
2023/08/24 10:58:44;;;;;;;33.50;17.27;;;;;;;;;;5015540;28;20037;-73
2023/08/24 11:01:21;;;;;;;40.80;18.02;;;;;;;;;;5017235;28;20033;-74
2023/08/24 11:03:56;;;;;;;36.13;19.05;;;;;;;;;;5022186;28;20029;-74
2023/08/24 11:06:22;;;;;;;36.35;18.90;;;;;;;;;;5017749;28;20033;-73
2023/08/24 11:09:06;;;;;;;36.17;18.52;;;;;;;;;;5020779;28;20040;-68
2023/08/24 11:11:31;;;;;;;30.83;16.38;;;;;;;;;;5019371;28;20037;-68
2023/08/24 11:14:19;;;;;;;34.35;19.10;;;;;;;;;;5018563;28;20029;-68
2023/08/24 11:16:47;;;;;;;31.23;20.90;;;;;;;;;;4999564;28;20411;-68
2023/08/24 11:19:13;;;;;;;31.38;21.98;;;;;;;;;;4998988;28;22476;-67
2023/08/24 11:21:39;;;;;;;33.78;21.60;;;;;;;;;;4988190;28;20090;-68
2023/08/24 11:24:05;;;;;;;28.40;22.13;;;;;;;;;;4999049;28;20041;-68
2023/08/24 11:26:30;;;;;;;28.13;21.02;;;;;;;;;;5000242;28;20041;-68
2023/08/24 11:28:57;;;;;;;27.17;21.73;;;;;;;;;;4999629;28;20033;-67
2023/08/24 11:31:23;;;;;;;35.72;26.00;;;;;;;;;;4999256;28;20029;-67
2023/08/24 11:33:53;;;;;;;39.42;31.05;;;;;;;;;;4984190;28;20121;-68
2023/08/24 11:36:18;;;;;;;37.33;32.40;;;;;;;;;;5002776;28;20026;-68
2023/08/24 11:38:44;;;;;;;29.02;25.67;;;;;;;;;;4998907;28;20091;-67
2023/08/24 11:41:15;;;;;;;27.73;21.40;;;;;;;;;;5025057;28;20168;-68
2023/08/24 11:43:41;;;;;;;26.00;19.20;;;;;;;;;;5024639;28;20037;-66
2023/08/24 11:46:06;;;;;;;28.48;18.95;;;;;;;;;;5024134;28;20068;-68
2023/08/24 11:48:32;;;;;;;22.45;17.73;;;;;;;;;;5018963;28;20061;-68
2023/08/24 11:50:57;;;;;;;19.42;17.05;;;;;;;;;;5018710;28;20064;-67
2023/08/24 11:53:25;;;;;;;19.88;17.35;;;;;;;;;;5019233;28;21657;-68
2023/08/24 11:55:53;;;;;;;22.15;17.92;;;;;;;;;;5017704;28;21244;-69
2023/08/24 11:58:18;;;;;;;23.95;17.63;;;;;;;;;;5015257;28;20037;-69
2023/08/24 12:00:44;;;;;;;20.90;17.98;;;;;;;;;;5018559;28;20033;-68
2023/08/24 12:03:12;;;;;;;23.48;17.58;;;;;;;;;;5018635;28;20429;-69
2023/08/24 12:05:38;;;;;;;22.98;17.60;;;;;;;;;;5020905;28;20036;-69
2023/08/24 12:08:06;;;;;;;24.95;17.42;;;;;;;;;;5052184;28;20065;-69
2023/08/24 12:10:31;;;;;;;19.08;17.02;;;;;;;;;;5022572;28;20096;-79
2023/08/24 12:13:04;;;;;;;17.63;15.35;;;;;;;;;;5020302;28;20120;-80
2023/08/24 12:15:29;;;;;;;16.08;14.30;;;;;;;;;;5021921;28;20501;-79
2023/08/24 12:17:55;;;;;;;19.33;14.98;;;;;;;;;;5019623;28;20061;-78
2023/08/24 12:20:22;;;;;;;19.27;15.55;;;;;;;;;;5018525;28;20068;-77
2023/08/24 12:22:58;;;;;;;18.42;15.65;;;;;;;;;;5022375;28;20040;-72
2023/08/24 12:25:24;;;;;;;18.00;14.02;;;;;;;;;;5007384;28;20596;-79
2023/08/24 12:28:07;;;;;;;14.80;13.27;;;;;;;;;;5026851;28;20124;-79
2023/08/24 12:30:45;;;;;;;15.82;13.80;;;;;;;;;;5016831;28;20048;-67
2023/08/24 12:33:20;;;;;;;16.45;13.25;;;;;;;;;;5017287;28;20434;-69
2023/08/24 12:35:45;;;;;;;14.00;12.20;;;;;;;;;;5014255;28;20043;-68
2023/08/24 12:38:11;;;;;;;12.00;10.43;;;;;;;;;;5019114;28;20029;-69
2023/08/24 12:40:37;;;;;;;13.85;11.23;;;;;;;;;;5018756;28;20127;-69
2023/08/24 12:43:02;;;;;;;15.48;11.52;;;;;;;;;;5019015;28;20034;-68
2023/08/24 12:45:28;;;;;;;11.70;10.50;;;;;;;;;;5016540;28;20053;-67
2023/08/24 12:47:54;;;;;;;11.38;10.15;;;;;;;;;;5016784;28;20218;-67
2023/08/24 12:50:19;;;;;;;11.40;10.27;;;;;;;;;;5015843;28;20043;-68
2023/08/24 12:52:47;;;;;;;11.80;10.60;;;;;;;;;;5015016;28;20047;-67
2023/08/24 12:55:14;;;;;;;12.32;9.48;;;;;;;;;;5019229;28;20048;-68
2023/08/24 12:57:40;;;;;;;10.70;9.00;;;;;;;;;;5014012;28;20041;-67
2023/08/24 13:00:08;;;;;;;9.13;8.23;;;;;;;;;;5017103;28;20164;-68
2023/08/24 13:02:33;;;;;;;10.35;8.38;;;;;;;;;;4988598;28;20040;-68
2023/08/24 13:05:04;;;;;;;10.57;7.60;;;;;;;;;;5018143;28;20041;-67
2023/08/24 13:07:29;;;;;;;8.45;6.97;;;;;;;;;;5046265;28;20534;-76
2023/08/24 13:09:54;;;;;;;11.70;7.60;;;;;;;;;;5018152;28;20037;-75
2023/08/24 13:12:21;;;;;;;8.50;7.53;;;;;;;;;;5014860;28;20033;-75
2023/08/24 13:14:47;;;;;;;11.20;8.32;;;;;;;;;;5013523;28;20196;-75
2023/08/24 13:17:12;;;;;;;9.90;8.90;;;;;;;;;;5017386;28;20124;-75
2023/08/24 13:19:38;;;;;;;10.98;9.20;;;;;;;;;;5017398;28;20123;-77
2023/08/24 13:22:03;;;;;;;12.55;9.52;;;;;;;;;;5017053;28;20040;-75
2023/08/24 13:24:31;;;;;;;10.27;9.20;;;;;;;;;;5020220;28;20135;-74
2023/08/24 13:26:56;;;;;;;13.98;9.93;;;;;;;;;;5015513;28;20052;-73
2023/08/24 13:29:21;;;;;;;13.68;11.02;;;;;;;;;;5049524;28;20041;-77
2023/08/24 13:31:49;;;;;;;13.60;11.57;;;;;;;;;;5015781;28;20457;-77
2023/08/24 13:34:14;;;;;;;13.52;12.07;;;;;;;;;;5015399;28;20200;-77
2023/08/24 13:36:40;;;;;;;14.75;13.25;;;;;;;;;;5014706;28;20029;-78
2023/08/24 13:39:05;;;;;;;16.30;13.70;;;;;;;;;;5018439;28;20497;-77
2023/08/24 13:41:30;;;;;;;16.40;14.63;;;;;;;;;;5016652;28;20505;-75
2023/08/24 13:43:55;;;;;;;16.40;14.73;;;;;;;;;;5016929;28;20036;-75
2023/08/24 13:46:23;;;;;;;15.20;13.70;;;;;;;;;;5015412;28;20497;-76
2023/08/24 13:48:48;;;;;;;16.30;14.27;;;;;;;;;;5022772;28;20241;-75
2023/08/24 13:51:14;;;;;;;15.52;13.90;;;;;;;;;;5014603;28;20033;-74
2023/08/24 13:53:41;;;;;;;15.93;13.23;;;;;;;;;;5022197;28;20053;-77
2023/08/24 13:56:07;;;;;;;15.65;12.85;;;;;;;;;;5019426;28;20029;-76
2023/08/24 13:58:35;;;;;;;14.77;12.90;;;;;;;;;;5018337;28;20448;-76
2023/08/24 14:01:02;;;;;;;16.10;11.80;;;;;;;;;;5019406;28;20068;-76
2023/08/24 14:03:28;;;;;;;14.23;11.13;;;;;;;;;;5022393;28;20046;-75
2023/08/24 14:05:57;;;;;;;10.68;9.55;;;;;;;;;;5005764;28;20108;-75
2023/08/24 14:08:22;;;;;;;10.68;8.68;;;;;;;;;;5017144;28;20087;-75
2023/08/24 14:10:51;;;;;;;10.23;7.53;;;;;;;;;;5008331;28;20086;-72
2023/08/24 14:13:18;;;;;;;10.38;7.43;;;;;;;;;;5019194;28;20845;-74
2023/08/24 14:15:44;;;;;;;10.52;7.75;;;;;;;;;;5014968;28;20119;-73
2023/08/24 14:18:11;;;;;;;9.98;7.57;;;;;;;;;;5016365;28;20087;-73
2023/08/24 14:20:36;;;;;;;8.38;6.95;;;;;;;;;;5015641;28;20048;-72
2023/08/24 14:23:03;;;;;;;9.70;7.50;;;;;;;;;;5016104;28;20041;-72
2023/08/24 14:25:28;;;;;;;12.77;9.13;;;;;;;;;;5013585;28;20037;-74